Time;durP1;ratioP1;P1;durP2;ratioP2;P2;SDS_P1;SDS_P2;PMS_P1;PMS_P2;Temp;Humidity;BMP_temperature;BMP_pressure;BME280_temperature;BME280_humidity;BME280_pressure;Samples;Min_cycle;Max_cycle;Signal;HPM_P1;HPM_P2
2022/11/05 00:09:28;;;;;;;2.50;2.17;;;10.30;99.90;;;;;;5039677;28;20730;-87
2022/11/05 00:17:40;;;;;;;3.43;3.13;;;10.30;99.90;;;;;;5043761;28;20208;-87
2022/11/05 00:20:08;;;;;;;3.00;2.80;;;10.20;99.90;;;;;;5059191;28;20187;-87
2022/11/05 00:25:19;;;;;;;3.83;3.43;;;10.30;99.90;;;;;;5061123;28;20233;-87
2022/11/05 00:27:47;;;;;;;3.87;3.47;;;10.30;99.90;;;;;;5055096;28;20554;-86
2022/11/05 00:30:24;;;;;;;4.10;3.70;;;10.30;99.90;;;;;;5054314;28;20201;-86
2022/11/05 00:32:51;;;;;;;4.80;4.30;;;10.30;99.90;;;;;;5056052;28;20182;-86
2022/11/05 00:35:20;;;;;;;4.77;4.37;;;10.30;99.90;;;;;;5063332;28;20305;-85
2022/11/05 00:37:46;;;;;;;5.00;4.50;;;10.10;99.90;;;;;;5057860;28;20210;-87
2022/11/05 00:40:13;;;;;;;4.73;4.33;;;10.20;99.90;;;;;;5052887;28;20207;-87
2022/11/05 00:45:28;;;;;;;6.07;5.57;;;10.10;99.90;;;;;;5059567;28;20258;-86
2022/11/05 00:50:39;;;;;;;5.50;5.00;;;10.10;99.90;;;;;;5050729;28;20236;-86
2022/11/05 00:53:06;;;;;;;5.63;5.13;;;10.20;99.90;;;;;;5062330;28;20185;-86
2022/11/05 00:55:52;;;;;;;5.60;5.20;;;10.30;99.90;;;;;;5054780;28;20211;-88
2022/11/05 00:58:19;;;;;;;6.50;5.90;;;10.30;99.90;;;;;;5057040;28;20205;-87
2022/11/05 01:00:58;;;;;;;6.97;6.37;;;10.10;99.90;;;;;;5038312;28;20203;-85
2022/11/05 01:03:29;;;;;;;5.90;5.40;;;10.00;99.90;;;;;;5061023;28;20235;-86
2022/11/05 01:05:57;;;;;;;6.00;5.50;;;10.30;99.90;;;;;;5058802;28;20215;-86
2022/11/05 01:08:25;;;;;;;6.30;5.80;;;10.30;99.90;;;;;;5049217;28;20693;-87
2022/11/05 01:10:53;;;;;;;7.00;6.07;;;10.30;99.90;;;;;;5055279;28;20193;-87
2022/11/05 01:13:24;;;;;;;6.67;6.10;;;10.30;99.90;;;;;;5057167;28;20277;-88
2022/11/05 01:15:50;;;;;;;6.47;5.90;;;10.40;99.90;;;;;;5066403;28;20205;-86
2022/11/05 01:18:17;;;;;;;7.10;6.50;;;10.60;99.90;;;;;;5030673;28;20475;-86
2022/11/05 01:20:43;;;;;;;7.53;6.57;;;10.60;99.90;;;;;;5055880;28;20194;-87
2022/11/05 01:23:10;;;;;;;7.10;6.50;;;10.50;99.90;;;;;;5055506;28;20202;-87
2022/11/05 01:25:36;;;;;;;7.93;7.20;;;10.40;99.90;;;;;;5055030;28;20261;-87
2022/11/05 01:28:03;;;;;;;7.97;7.20;;;10.30;99.90;;;;;;5052378;28;20186;-87
2022/11/05 01:30:29;;;;;;;7.43;6.73;;;10.40;99.90;;;;;;5051384;28;20240;-87
2022/11/05 01:32:56;;;;;;;7.43;6.73;;;10.50;99.90;;;;;;5055945;28;20215;-87
2022/11/05 01:35:22;;;;;;;8.07;7.37;;;10.50;99.90;;;;;;5052084;28;20587;-90
2022/11/05 01:37:48;;;;;;;7.80;7.10;;;10.40;99.90;;;;;;5049536;28;20196;-89
2022/11/05 01:40:19;;;;;;;7.50;6.90;;;10.40;99.90;;;;;;5057648;28;20210;-87
2022/11/05 01:42:48;;;;;;;7.47;6.77;;;10.50;99.90;;;;;;5061513;28;20206;-89
2022/11/05 01:45:25;;;;;;;9.53;7.37;;;10.60;99.90;;;;;;5056784;28;20748;-88
2022/11/05 01:48:20;;;;;;;9.17;7.50;;;10.60;99.90;;;;;;5051615;28;20190;-87
2022/11/05 01:51:10;;;;;;;7.60;7.00;;;10.60;99.90;;;;;;5042589;28;20287;-87
2022/11/05 01:53:41;;;;;;;7.73;7.10;;;10.60;99.90;;;;;;5041689;28;20207;-87
2022/11/05 01:56:17;;;;;;;7.83;7.10;;;10.70;99.90;;;;;;5037073;28;20218;-88
2022/11/05 01:58:51;;;;;;;7.53;6.93;;;10.70;99.90;;;;;;5049252;28;20213;-88
2022/11/05 02:01:18;;;;;;;8.40;7.60;;;10.70;99.90;;;;;;5060163;28;20187;-88
2022/11/05 02:03:47;;;;;;;8.03;7.20;;;10.70;99.90;;;;;;5038116;28;20219;-88
2022/11/05 02:06:21;;;;;;;7.97;7.37;;;10.80;99.90;;;;;;5050429;28;20207;-87
2022/11/05 02:09:02;;;;;;;7.47;6.87;;;10.80;99.90;;;;;;5036018;28;20274;-88
2022/11/05 02:11:28;;;;;;;8.20;7.50;;;10.80;99.90;;;;;;5051650;28;20186;-87
2022/11/05 02:13:54;;;;;;;8.03;7.23;;;10.90;99.90;;;;;;5054601;28;20223;-87
2022/11/05 02:16:50;;;;;;;8.13;7.43;;;11.00;99.90;;;;;;5055068;28;20191;-87
2022/11/05 02:19:24;;;;;;;7.97;7.30;;;11.00;99.90;;;;;;5053364;28;20187;-88
2022/11/05 02:22:24;;;;;;;8.37;7.67;;;11.00;99.90;;;;;;5057979;28;20192;-87
2022/11/05 02:24:55;;;;;;;8.07;7.37;;;10.90;99.90;;;;;;5060107;28;20211;-87
2022/11/05 02:27:33;;;;;;;9.37;7.87;;;10.90;99.90;;;;;;5054732;28;20209;-88
2022/11/05 02:30:22;;;;;;;8.63;7.70;;;10.90;99.90;;;;;;5048421;28;20594;-86
2022/11/05 02:33:22;;;;;;;8.00;7.30;;;10.80;99.90;;;;;;5051408;28;20222;-87
2022/11/05 02:36:09;;;;;;;9.10;8.20;;;10.90;99.90;;;;;;5057477;28;20255;-87
2022/11/05 02:38:47;;;;;;;8.80;8.00;;;10.90;99.90;;;;;;5059975;28;20192;-88
2022/11/05 02:41:22;;;;;;;8.37;7.40;;;10.80;99.90;;;;;;5039386;28;20210;-87
2022/11/05 02:44:03;;;;;;;8.23;7.53;;;10.80;99.90;;;;;;5061886;28;20211;-86
2022/11/05 02:46:53;;;;;;;8.33;7.63;;;10.80;99.90;;;;;;5056601;28;20290;-86
2022/11/05 02:50:05;;;;;;;8.47;7.70;;;10.80;99.90;;;;;;5066547;28;20209;-87
2022/11/05 02:53:11;;;;;;;7.60;6.90;;;10.80;99.90;;;;;;5025782;28;20549;-86
2022/11/05 02:55:43;;;;;;;8.13;7.33;;;10.90;99.90;;;;;;5029519;28;20221;-86
2022/11/05 02:58:10;;;;;;;8.53;7.73;;;10.90;99.90;;;;;;5044863;28;20187;-87
2022/11/05 03:00:56;;;;;;;8.87;7.57;;;10.80;99.90;;;;;;5053506;28;20206;-86
2022/11/05 03:03:45;;;;;;;8.40;7.70;;;10.80;99.90;;;;;;5060901;28;20182;-85
2022/11/05 03:06:35;;;;;;;9.57;8.57;;;10.80;99.90;;;;;;5057422;28;20207;-87
2022/11/05 03:09:34;;;;;;;8.17;7.47;;;10.80;99.90;;;;;;5057975;28;20268;-87
2022/11/05 03:12:31;;;;;;;7.77;7.17;;;10.90;99.90;;;;;;5083143;22;20230;-87
2022/11/05 03:15:18;;;;;;;9.77;8.97;;;10.80;99.90;;;;;;5054568;28;20290;-88
2022/11/05 03:17:51;;;;;;;9.00;8.30;;;10.80;99.90;;;;;;5067333;28;20205;-88
2022/11/05 03:20:50;;;;;;;9.60;7.60;;;10.80;99.90;;;;;;5066742;28;20187;-88
2022/11/05 03:23:49;;;;;;;8.87;7.97;;;11.00;99.90;;;;;;5074238;28;20214;-89
2022/11/05 03:26:36;;;;;;;9.00;8.20;;;11.10;99.90;;;;;;5070457;28;20208;-88
2022/11/05 03:29:14;;;;;;;8.50;7.60;;;11.10;99.90;;;;;;5072727;28;20178;-88
2022/11/05 03:31:49;;;;;;;7.77;7.13;;;11.10;99.90;;;;;;5048462;28;20192;-88
2022/11/05 03:34:37;;;;;;;8.33;7.50;;;11.20;99.90;;;;;;5052963;28;20189;-88
2022/11/05 03:37:27;;;;;;;8.13;7.30;;;11.20;99.90;;;;;;5069246;28;20192;-88
2022/11/05 03:39:57;;;;;;;9.57;8.10;;;11.10;99.90;;;;;;5075192;28;20240;-87
2022/11/05 03:42:26;;;;;;;8.57;6.97;;;11.00;99.90;;;;;;5073655;28;20195;-88
2022/11/05 03:44:57;;;;;;;8.17;7.40;;;11.10;99.90;;;;;;5056077;28;20212;-88
2022/11/05 03:47:32;;;;;;;7.93;6.90;;;11.10;99.90;;;;;;5059578;28;20217;-88
2022/11/05 03:50:13;;;;;;;8.77;7.10;;;11.20;99.90;;;;;;5057390;28;20239;-88
2022/11/05 03:52:46;;;;;;;7.80;7.20;;;11.10;99.90;;;;;;5060066;28;20184;-88
2022/11/05 03:55:16;;;;;;;7.33;6.73;;;11.20;99.90;;;;;;5074502;28;20204;-88
2022/11/05 03:57:46;;;;;;;7.67;6.97;;;11.20;99.90;;;;;;5070322;28;20195;-88
2022/11/05 04:00:15;;;;;;;7.27;6.67;;;11.20;99.90;;;;;;5055851;28;20245;-88
2022/11/05 04:02:41;;;;;;;7.43;6.73;;;11.30;99.90;;;;;;5073608;28;20192;-88
2022/11/05 04:05:06;;;;;;;7.37;6.67;;;11.30;99.90;;;;;;5052906;28;20281;-88
2022/11/05 04:18:30;;;;;;;7.43;6.77;;;11.40;99.90;;;;;;5073951;28;20191;-88
2022/11/05 04:26:27;;;;;;;7.77;6.97;;;11.20;99.90;;;;;;5074570;28;20258;-88
2022/11/05 04:31:37;;;;;;;7.60;6.90;;;11.00;99.90;;;;;;5074721;28;20194;-87
2022/11/05 04:34:03;;;;;;;7.57;6.97;;;11.10;99.90;;;;;;5075503;28;20818;-88
2022/11/05 04:36:29;;;;;;;6.50;5.90;;;11.00;99.90;;;;;;5059491;28;20219;-88
2022/11/05 04:38:55;;;;;;;7.63;6.97;;;11.10;99.90;;;;;;5054853;28;20218;-88
2022/11/05 04:41:21;;;;;;;7.60;6.90;;;11.20;99.90;;;;;;5078177;28;20180;-88
2022/11/05 04:43:48;;;;;;;7.10;6.47;;;11.20;99.90;;;;;;5069052;28;20183;-87
2022/11/05 04:46:14;;;;;;;7.67;6.97;;;11.10;99.90;;;;;;5076135;28;20223;-88
2022/11/05 04:48:39;;;;;;;6.40;5.90;;;11.10;99.90;;;;;;5051495;28;20179;-87
2022/11/05 04:51:05;;;;;;;7.30;6.60;;;11.20;99.90;;;;;;5066970;28;20199;-89
2022/11/05 04:53:31;;;;;;;6.73;6.00;;;11.20;99.90;;;;;;5059685;28;20255;-89
2022/11/05 04:56:18;;;;;;;6.90;5.93;;;11.20;99.90;;;;;;5074161;28;20234;-89
2022/11/05 04:58:45;;;;;;;6.00;5.50;;;11.30;99.90;;;;;;5073834;28;20267;-89
2022/11/05 05:01:13;;;;;;;6.60;6.03;;;11.30;99.90;;;;;;5074176;28;20196;-89
2022/11/05 05:04:00;;;;;;;6.23;5.73;;;11.20;99.90;;;;;;5065177;28;20192;-89
2022/11/05 05:06:26;;;;;;;6.57;6.07;;;11.10;99.90;;;;;;5065005;28;20687;-89
2022/11/05 05:08:52;;;;;;;8.50;7.73;;;11.20;99.90;;;;;;5073218;28;20179;-89
2022/11/05 05:11:20;;;;;;;7.37;6.77;;;11.20;99.90;;;;;;5070265;28;20200;-89
2022/11/05 05:13:47;;;;;;;7.93;7.23;;;11.20;99.90;;;;;;5055032;28;20297;-89
2022/11/05 05:16:26;;;;;;;6.00;5.50;;;11.10;99.90;;;;;;5051242;28;20200;-89
2022/11/05 05:18:58;;;;;;;6.40;5.80;;;11.10;99.90;;;;;;5055813;28;20559;-89
2022/11/05 05:21:41;;;;;;;10.40;9.80;;;11.10;99.90;;;;;;5069672;28;20192;-88
2022/11/05 05:24:15;;;;;;;6.83;6.13;;;11.00;99.90;;;;;;5059599;28;20194;-89
2022/11/05 05:26:43;;;;;;;7.13;6.67;;;11.00;99.90;;;;;;5050236;28;20186;-88
2022/11/05 05:29:10;;;;;;;9.97;9.37;;;11.00;99.90;;;;;;5075299;28;20183;-89
2022/11/05 05:31:36;;;;;;;7.67;7.10;;;10.90;99.90;;;;;;5055537;28;20197;-88
2022/11/05 05:34:02;;;;;;;17.97;16.97;;;10.90;99.90;;;;;;5075817;28;20547;-89
2022/11/05 05:36:29;;;;;;;6.43;5.83;;;10.80;99.90;;;;;;5072480;28;20187;-88
2022/11/05 05:38:55;;;;;;;5.17;4.83;;;10.90;99.90;;;;;;5064423;28;20206;-89
2022/11/05 05:41:21;;;;;;;4.80;4.40;;;10.90;99.90;;;;;;5058714;28;20262;-89
2022/11/05 05:43:47;;;;;;;5.60;5.20;;;11.00;99.90;;;;;;5071922;28;20262;-89
2022/11/05 05:46:16;;;;;;;7.53;6.93;;;11.10;99.90;;;;;;5062450;28;20230;-89
2022/11/05 05:48:42;;;;;;;4.97;4.57;;;11.00;99.90;;;;;;5068621;28;20180;-89
2022/11/05 05:51:10;;;;;;;5.07;4.67;;;11.00;99.90;;;;;;5072367;28;20258;-89
2022/11/05 05:53:37;;;;;;;5.07;4.67;;;11.00;99.90;;;;;;5070101;28;20226;-89
2022/11/05 05:56:03;;;;;;;5.37;4.30;;;11.10;99.90;;;;;;5056076;28;20238;-89
2022/11/05 05:58:35;;;;;;;5.93;5.33;;;11.10;99.90;;;;;;5066195;28;20216;-89
2022/11/05 06:01:10;;;;;;;4.90;4.50;;;11.10;99.90;;;;;;5057709;28;20260;-88
2022/11/05 06:03:35;;;;;;;4.80;4.40;;;11.10;99.90;;;;;;5056194;28;20194;-88
2022/11/05 06:06:11;;;;;;;4.57;4.17;;;10.90;99.90;;;;;;5049269;28;20211;-88
2022/11/05 06:08:38;;;;;;;4.17;3.87;;;10.90;99.90;;;;;;5071299;28;20183;-88
2022/11/05 06:11:04;;;;;;;4.87;4.43;;;10.90;99.90;;;;;;5072502;28;20234;-87
2022/11/05 06:13:31;;;;;;;5.73;4.87;;;11.00;99.90;;;;;;5060361;28;20550;-88
2022/11/05 06:16:05;;;;;;;4.90;4.50;;;11.00;99.90;;;;;;5058763;28;20231;-88
2022/11/05 06:18:32;;;;;;;5.27;4.87;;;11.10;99.90;;;;;;5061419;28;20198;-88
2022/11/05 06:21:02;;;;;;;5.33;4.93;;;11.10;99.90;;;;;;5052797;28;20192;-88
2022/11/05 06:23:33;;;;;;;5.60;5.20;;;11.10;99.90;;;;;;5054006;28;20185;-88
2022/11/05 06:26:00;;;;;;;5.90;4.93;;;11.10;99.90;;;;;;5070990;28;20600;-88
2022/11/05 06:28:26;;;;;;;5.37;4.30;;;11.10;99.90;;;;;;5052272;28;20188;-89
2022/11/05 06:30:52;;;;;;;5.10;4.60;;;11.10;99.90;;;;;;5066944;28;20192;-88
2022/11/05 06:33:18;;;;;;;5.20;4.70;;;11.00;99.90;;;;;;5065327;28;20240;-88
2022/11/05 06:35:44;;;;;;;5.20;4.73;;;11.00;99.90;;;;;;5068741;28;20208;-88
2022/11/05 06:38:09;;;;;;;6.20;5.80;;;11.10;99.90;;;;;;5059436;28;20188;-89
2022/11/05 06:40:38;;;;;;;4.90;4.50;;;11.10;99.90;;;;;;5072450;28;20207;-88
2022/11/05 06:43:04;;;;;;;4.77;4.30;;;11.10;99.90;;;;;;5051650;28;20201;-89
2022/11/05 06:45:30;;;;;;;4.73;4.40;;;11.10;99.90;;;;;;5046784;28;20220;-89
2022/11/05 06:47:57;;;;;;;5.10;4.70;;;11.10;99.90;;;;;;5056530;28;20774;-88
2022/11/05 06:50:24;;;;;;;5.03;4.60;;;11.10;99.90;;;;;;5083771;28;20197;-89
2022/11/05 06:52:59;;;;;;;5.03;4.60;;;11.10;99.90;;;;;;5059480;28;20242;-88
2022/11/05 06:55:27;;;;;;;5.00;4.60;;;11.00;99.90;;;;;;5066576;28;20679;-88
2022/11/05 06:57:52;;;;;;;4.37;3.97;;;10.90;99.90;;;;;;5053544;28;20263;-88
2022/11/05 07:00:19;;;;;;;4.57;4.17;;;11.00;99.90;;;;;;5071302;28;20245;-87
2022/11/05 07:02:45;;;;;;;5.10;4.70;;;11.00;99.90;;;;;;5076174;28;20188;-88
2022/11/05 07:05:12;;;;;;;4.80;4.30;;;11.10;99.90;;;;;;5059146;28;20219;-88
2022/11/05 07:07:39;;;;;;;6.23;4.50;;;11.10;99.90;;;;;;5065570;28;20195;-88
2022/11/05 07:10:10;;;;;;;4.13;3.83;;;11.00;99.90;;;;;;5071438;28;20183;-87
2022/11/05 07:12:36;;;;;;;4.73;4.33;;;11.10;99.90;;;;;;5079177;28;20197;-88
2022/11/05 07:15:02;;;;;;;4.63;4.23;;;11.20;99.90;;;;;;5058841;28;20204;-88
2022/11/05 07:17:28;;;;;;;4.93;4.43;;;11.10;99.90;;;;;;5081788;28;20200;-87
2022/11/05 07:19:54;;;;;;;4.43;4.03;;;11.10;99.90;;;;;;5071577;28;20187;-87
2022/11/05 07:22:20;;;;;;;4.00;3.60;;;11.10;99.90;;;;;;5091243;28;20230;-86
2022/11/05 07:24:48;;;;;;;4.20;3.90;;;11.10;99.90;;;;;;5085284;28;20281;-87
2022/11/05 07:27:13;;;;;;;4.13;3.73;;;11.20;99.90;;;;;;5073211;28;20204;-86
2022/11/05 07:29:39;;;;;;;5.23;3.93;;;11.20;99.90;;;;;;5070375;28;20207;-87
2022/11/05 07:32:05;;;;;;;4.83;4.43;;;11.10;99.90;;;;;;5052530;28;20197;-87
2022/11/05 07:34:31;;;;;;;4.57;4.17;;;11.10;99.90;;;;;;5066082;28;20660;-87
2022/11/05 07:36:58;;;;;;;5.27;4.77;;;11.10;99.90;;;;;;5058118;28;20215;-86
2022/11/05 07:39:27;;;;;;;4.70;4.30;;;11.00;99.90;;;;;;5065829;28;20219;-87
2022/11/05 07:41:54;;;;;;;5.27;4.87;;;11.00;99.90;;;;;;5052351;28;20191;-87
2022/11/05 07:44:31;;;;;;;4.93;4.40;;;10.80;99.90;;;;;;5145239;22;20207;-88
2022/11/05 07:47:37;;;;;;;4.60;4.20;;;10.70;99.90;;;;;;5056893;28;20200;-87
2022/11/05 07:50:43;;;;;;;4.37;3.97;;;10.70;99.90;;;;;;5051017;28;20206;-88
2022/11/05 07:53:38;;;;;;;4.60;4.20;;;10.80;99.90;;;;;;5026854;28;20198;-88
2022/11/05 07:59:21;;;;;;;4.67;4.23;;;10.80;99.90;;;;;;5036558;28;20939;-89
2022/11/05 08:02:17;;;;;;;4.43;4.00;;;10.80;99.90;;;;;;5023109;28;20207;-88
2022/11/05 08:05:16;;;;;;;;;;;;;;;;;;;;;
2022/11/05 08:07:59;;;;;;;4.97;4.20;;;10.80;99.90;;;;;;5039569;28;20255;-88
2022/11/05 08:11:11;;;;;;;4.83;3.83;;;10.80;99.90;;;;;;5038446;28;20712;-88
2022/11/05 08:13:51;;;;;;;4.73;4.30;;;10.80;99.90;;;;;;5020489;28;20196;-89
2022/11/05 08:16:24;;;;;;;4.37;3.97;;;10.80;99.90;;;;;;5019259;28;20328;-88
2022/11/05 08:18:52;;;;;;;4.50;4.20;;;10.80;99.90;;;;;;5038869;28;20184;-88
2022/11/05 08:21:18;;;;;;;4.27;3.97;;;10.90;99.90;;;;;;5012016;28;20208;-88
2022/11/05 08:23:50;;;;;;;4.60;4.20;;;10.80;99.90;;;;;;5033846;28;20192;-88
2022/11/05 08:26:39;;;;;;;4.23;3.90;;;10.80;99.90;;;;;;5026101;28;20661;-89
2022/11/05 08:29:05;;;;;;;4.27;3.97;;;10.90;99.90;;;;;;5004914;28;20196;-87
2022/11/05 08:31:31;;;;;;;3.73;3.43;;;11.00;99.90;;;;;;5039746;28;20187;-86
2022/11/05 08:33:57;;;;;;;3.93;3.50;;;11.10;99.90;;;;;;5040241;28;20203;-87
2022/11/05 08:36:22;;;;;;;4.17;3.30;;;11.10;99.90;;;;;;5038177;28;20830;-87
2022/11/05 08:38:57;;;;;;;3.70;3.40;;;11.00;99.90;;;;;;5036537;28;20192;-88
2022/11/05 08:41:23;;;;;;;6.37;3.63;;;10.90;99.90;;;;;;5035189;28;20207;-87
2022/11/05 08:43:49;;;;;;;4.97;3.40;;;10.80;99.90;;;;;;5032507;28;20189;-86
2022/11/05 08:46:16;;;;;;;3.80;3.50;;;10.80;99.90;;;;;;5014368;28;20354;-88
2022/11/05 08:48:42;;;;;;;6.13;4.30;;;10.90;99.90;;;;;;5042438;28;20184;-89
2022/11/05 08:51:14;;;;;;;4.07;3.67;;;10.90;99.90;;;;;;5036870;28;20187;-87
2022/11/05 08:53:41;;;;;;;4.37;3.97;;;10.80;99.90;;;;;;5031941;28;20751;-87
2022/11/05 08:56:13;;;;;;;4.40;4.00;;;10.80;99.90;;;;;;5036094;28;20212;-88
2022/11/05 08:58:41;;;;;;;4.90;4.40;;;10.80;99.90;;;;;;5042307;28;20203;-87
2022/11/05 09:01:07;;;;;;;5.50;5.00;;;10.70;99.90;;;;;;5033709;28;20211;-87
2022/11/05 09:03:33;;;;;;;4.40;4.00;;;10.70;99.90;;;;;;5036478;28;20193;-87
2022/11/05 09:05:58;;;;;;;4.53;4.10;;;10.80;99.90;;;;;;5033512;28;20298;-86
2022/11/05 09:08:24;;;;;;;4.63;3.70;;;10.70;99.90;;;;;;5038274;28;20191;-87
2022/11/05 09:10:50;;;;;;;4.23;3.83;;;10.90;99.90;;;;;;5034252;28;20199;-87
2022/11/05 09:13:17;;;;;;;4.17;3.87;;;11.00;99.90;;;;;;5016282;28;20200;-87
2022/11/05 09:15:42;;;;;;;4.47;4.07;;;11.00;99.90;;;;;;5030285;28;20255;-87
2022/11/05 09:18:12;;;;;;;4.50;4.10;;;11.00;99.90;;;;;;5030349;28;20671;-86
2022/11/05 09:20:38;;;;;;;6.63;4.50;;;11.00;99.90;;;;;;5031558;28;20189;-87
2022/11/05 09:23:05;;;;;;;5.17;4.73;;;11.20;99.90;;;;;;5035583;28;20187;-88
2022/11/05 09:25:33;;;;;;;4.63;4.23;;;11.20;99.90;;;;;;5020842;28;20224;-87
2022/11/05 09:28:13;;;;;;;4.37;3.60;;;11.10;99.90;;;;;;5020100;28;20211;-88
2022/11/05 09:30:43;;;;;;;4.17;3.87;;;11.20;99.90;;;;;;5030970;28;20564;-87
2022/11/05 09:33:09;;;;;;;4.40;4.00;;;11.20;99.90;;;;;;5021234;28;20272;-87
2022/11/05 09:35:39;;;;;;;4.10;3.70;;;11.20;99.90;;;;;;5027276;28;20205;-86
2022/11/05 09:38:06;;;;;;;4.13;3.83;;;11.30;99.90;;;;;;5026220;28;20282;-86
2022/11/05 09:40:55;;;;;;;4.53;3.93;;;11.50;99.90;;;;;;5020411;28;20259;-87
2022/11/05 09:43:26;;;;;;;5.40;3.90;;;11.50;99.90;;;;;;5011786;28;20711;-86
2022/11/05 09:45:56;;;;;;;4.50;4.00;;;11.80;96.10;;;;;;5031023;28;20228;-86
2022/11/05 09:48:26;;;;;;;4.90;4.40;;;11.90;98.20;;;;;;5031509;28;20180;-89
2022/11/05 09:50:53;;;;;;;4.60;4.20;;;12.00;98.20;;;;;;5032227;28;20185;-86
2022/11/05 09:53:23;;;;;;;5.90;4.70;;;11.80;99.00;;;;;;5021742;28;20184;-86
2022/11/05 10:00:17;;;;;;;5.53;4.90;;;11.30;99.90;;;;;;5009055;28;20669;-86
2022/11/05 10:06:22;;;;;;;6.00;4.43;;;11.20;99.90;;;;;;5004551;28;20237;-86
2022/11/05 10:29:04;;;;;;;5.27;4.80;;;11.90;96.50;;;;;;4954682;28;20544;-88
2022/11/05 10:31:54;;;;;;;5.10;4.70;;;11.80;98.60;;;;;;4990594;28;20257;-87
2022/11/05 10:34:25;;;;;;;5.50;5.00;;;12.10;99.90;;;;;;5011487;28;20684;-87
2022/11/05 10:36:56;;;;;;;7.70;5.10;;;12.30;96.50;;;;;;5024729;28;20192;-87
2022/11/05 10:39:35;;;;;;;5.33;4.83;;;12.30;97.50;;;;;;5023439;28;20185;-88
2022/11/05 10:42:38;;;;;;;7.43;4.93;;;12.50;95.10;;;;;;5020194;28;20602;-88
2022/11/05 10:45:14;;;;;;;6.90;4.80;;;12.90;91.40;;;;;;5029332;28;20644;-88
2022/11/05 10:47:43;;;;;;;6.00;4.90;;;13.10;89.10;;;;;;5022264;28;20197;-87
2022/11/05 10:50:21;;;;;;;5.10;4.60;;;13.20;90.00;;;;;;5025244;28;20192;-88
2022/11/05 10:52:51;;;;;;;5.00;4.60;;;13.00;88.60;;;;;;5022575;28;20212;-88
2022/11/05 10:55:29;;;;;;;5.23;4.73;;;13.00;88.70;;;;;;5029336;28;20310;-88
2022/11/05 10:58:05;;;;;;;5.73;5.10;;;12.70;89.90;;;;;;5026237;28;20380;-88
2022/11/05 11:00:31;;;;;;;5.73;5.10;;;12.50;93.00;;;;;;5027464;28;20177;-87
2022/11/05 11:03:00;;;;;;;6.07;5.23;;;12.50;92.60;;;;;;5009856;28;20486;-88
2022/11/05 11:05:37;;;;;;;6.43;4.80;;;12.30;91.30;;;;;;5024719;28;20216;-87
2022/11/05 11:08:11;;;;;;;6.13;4.90;;;12.50;93.90;;;;;;5017029;28;20212;-88
2022/11/05 11:10:47;;;;;;;6.30;5.13;;;12.70;91.00;;;;;;5015759;28;20196;-87
2022/11/05 11:13:28;;;;;;;6.70;5.07;;;12.80;88.00;;;;;;5017863;28;20178;-87
2022/11/05 11:16:15;;;;;;;6.07;5.00;;;12.90;86.20;;;;;;5016567;28;20221;-88
2022/11/05 11:18:48;;;;;;;5.77;4.87;;;12.50;87.20;;;;;;5024187;28;20182;-89
2022/11/05 11:21:23;;;;;;;6.60;4.93;;;12.50;89.40;;;;;;5009377;28;20199;-88
2022/11/05 11:23:57;;;;;;;4.43;3.93;;;12.50;88.50;;;;;;5020956;28;20264;-87
2022/11/05 11:26:28;;;;;;;5.93;4.93;;;12.20;89.80;;;;;;5051461;22;20269;-88
2022/11/05 11:29:22;;;;;;;4.97;4.57;;;12.40;91.80;;;;;;5039366;28;20199;-88
2022/11/05 11:38:29;;;;;;;5.63;5.13;;;13.10;89.90;;;;;;4149146;22;20246;-88
2022/11/05 11:42:08;;;;;;;;;;;;;;;;;;;;;
2022/11/05 11:44:28;;;;;;;5.13;4.63;;;12.70;93.80;;;;;;4930274;29;20214;-89
2022/11/05 11:47:02;;;;;;;8.53;5.07;;;13.30;89.50;;;;;;4988454;28;20205;-89
2022/11/05 11:53:43;;;;;;;4.93;4.53;;;14.20;83.70;;;;;;5011296;28;20185;-89
2022/11/05 11:56:23;;;;;;;7.33;5.07;;;13.60;87.10;;;;;;5012176;28;20255;-87
2022/11/05 12:03:15;;;;;;;6.70;5.13;;;12.70;92.70;;;;;;4994951;28;20203;-90
2022/11/05 12:05:50;;;;;;;8.63;5.40;;;12.80;90.60;;;;;;4979921;28;20239;-87
2022/11/05 12:08:30;;;;;;;6.27;5.27;;;12.70;92.80;;;;;;5010085;28;20195;-88
2022/11/05 12:11:24;;;;;;;5.70;5.20;;;12.90;91.40;;;;;;5008508;28;20580;-90
2022/11/05 12:13:55;;;;;;;7.30;5.57;;;12.90;91.80;;;;;;4989767;28;20204;-87
2022/11/05 12:16:55;;;;;;;6.83;5.40;;;13.10;91.30;;;;;;4991657;28;21361;-89
2022/11/05 12:19:42;;;;;;;6.00;5.33;;;13.20;88.90;;;;;;5008920;28;20282;-89
2022/11/05 12:22:50;;;;;;;6.20;4.73;;;13.10;89.60;;;;;;5011281;28;20190;-89
2022/11/05 12:25:16;;;;;;;5.17;4.47;;;13.30;87.10;;;;;;4986177;28;20224;-91
2022/11/05 12:28:07;;;;;;;5.83;4.73;;;13.70;85.80;;;;;;5013064;28;21206;-88
2022/11/05 12:30:47;;;;;;;5.57;4.77;;;13.80;84.10;;;;;;4993009;28;20196;-88
2022/11/05 12:33:21;;;;;;;7.90;4.33;;;13.20;81.80;;;;;;5010363;28;20188;-89
2022/11/05 12:36:13;;;;;;;5.10;4.50;;;13.10;84.00;;;;;;4994093;28;20780;-88
2022/11/05 12:39:18;;;;;;;6.53;4.80;;;12.80;84.20;;;;;;4990190;28;20247;-89
2022/11/05 12:42:00;;;;;;;5.87;4.67;;;12.30;89.10;;;;;;4988426;28;20902;-88
2022/11/05 12:45:00;;;;;;;6.67;4.83;;;12.10;88.70;;;;;;4991131;28;20252;-87
2022/11/05 12:47:34;;;;;;;6.50;4.80;;;11.90;88.40;;;;;;5009524;28;20204;-89
2022/11/05 12:50:03;;;;;;;8.47;4.70;;;11.90;89.20;;;;;;4987018;28;20222;-88
2022/11/05 12:53:06;;;;;;;11.23;10.17;;;12.10;88.70;;;;;;4988952;28;20286;-88
2022/11/05 12:55:38;;;;;;;6.10;4.07;;;12.00;86.80;;;;;;4991961;28;20297;-88
2022/11/05 12:58:22;;;;;;;7.13;4.67;;;12.00;88.20;;;;;;5013413;28;20699;-88
2022/11/05 13:00:56;;;;;;;5.43;3.87;;;12.00;86.90;;;;;;4994192;28;20190;-89
2022/11/05 13:03:31;;;;;;;5.40;4.27;;;12.10;88.30;;;;;;4986232;28;20176;-87
2022/11/05 13:06:13;;;;;;;7.10;4.80;;;12.10;86.60;;;;;;4990389;28;21442;-88
2022/11/05 13:09:08;;;;;;;6.73;4.73;;;12.20;85.20;;;;;;4992190;28;20191;-89
2022/11/05 13:11:53;;;;;;;6.07;4.00;;;12.30;84.90;;;;;;4991964;28;20199;-89
2022/11/05 13:20:31;;;;;;;5.87;5.37;;;12.40;84.40;;;;;;4998784;28;20229;-88
2022/11/05 13:23:26;;;;;;;4.60;4.20;;;12.50;81.80;;;;;;4925267;28;20590;-88
2022/11/05 13:25:58;;;;;;;5.03;4.40;;;12.60;79.80;;;;;;4949334;28;20285;-89
2022/11/05 13:28:49;;;;;;;5.27;4.87;;;12.70;78.40;;;;;;4976294;28;20181;-93
2022/11/05 13:31:26;;;;;;;5.37;4.70;;;12.70;77.50;;;;;;4961056;28;20194;-88
2022/11/05 13:33:56;;;;;;;4.37;3.97;;;12.80;78.00;;;;;;4973547;28;20353;-88
2022/11/05 13:39:23;;;;;;;7.80;7.13;;;12.70;76.90;;;;;;4976965;28;20196;-87
2022/11/05 13:42:00;;;;;;;8.23;5.07;;;12.70;75.20;;;;;;4981092;28;20177;-88
2022/11/05 13:44:50;;;;;;;6.87;5.30;;;12.80;76.10;;;;;;4976658;28;20244;-89
2022/11/05 13:47:30;;;;;;;5.67;3.70;;;12.90;75.90;;;;;;4960142;28;20730;-87
2022/11/05 13:50:25;;;;;;;4.30;3.87;;;13.30;74.10;;;;;;4971870;28;20196;-86
2022/11/05 13:53:06;;;;;;;7.03;3.10;;;13.60;71.80;;;;;;4977850;28;20671;-87
2022/11/05 13:55:46;;;;;;;9.77;4.23;;;13.60;72.00;;;;;;4985344;28;20208;-88
2022/11/05 13:58:30;;;;;;;4.27;3.53;;;13.60;72.20;;;;;;4986553;28;20683;-87
2022/11/05 14:01:22;;;;;;;5.63;3.40;;;13.60;73.50;;;;;;4982546;28;20226;-88
2022/11/05 14:03:50;;;;;;;6.40;4.30;;;13.50;72.70;;;;;;4981631;28;20598;-87
2022/11/05 14:06:30;;;;;;;4.23;3.83;;;13.40;72.00;;;;;;4980815;28;20214;-87
2022/11/05 14:09:00;;;;;;;4.20;3.80;;;13.50;71.30;;;;;;4980079;28;20563;-89
2022/11/05 14:11:39;;;;;;;4.83;3.90;;;13.30;73.70;;;;;;4980618;28;20681;-86
2022/11/05 14:14:15;;;;;;;3.80;3.50;;;13.20;73.90;;;;;;4967873;28;20201;-87
2022/11/05 14:16:55;;;;;;;4.13;3.37;;;13.20;73.20;;;;;;4981671;28;20185;-88
2022/11/05 14:19:32;;;;;;;10.23;7.73;;;13.00;75.20;;;;;;4979773;28;20190;-88
2022/11/05 14:21:58;;;;;;;7.93;4.67;;;13.00;74.70;;;;;;4964548;28;20270;-89
2022/11/05 14:24:23;;;;;;;5.00;4.30;;;13.20;75.20;;;;;;4976118;28;20226;-89
2022/11/05 14:27:01;;;;;;;5.43;3.73;;;13.30;74.10;;;;;;4972991;28;20247;-88
2022/11/05 14:29:39;;;;;;;5.23;3.97;;;13.50;73.60;;;;;;4971911;28;20606;-90
2022/11/05 14:32:19;;;;;;;5.83;3.97;;;13.60;72.50;;;;;;4972788;28;20265;-87
2022/11/05 14:35:00;;;;;;;4.77;3.93;;;13.60;69.60;;;;;;4972272;28;20244;-87
2022/11/05 14:37:31;;;;;;;4.20;3.80;;;13.80;70.00;;;;;;4967637;28;20442;-89
2022/11/05 14:40:20;;;;;;;7.43;5.83;;;13.80;69.70;;;;;;4973450;28;20222;-90
2022/11/05 14:42:55;;;;;;;5.77;4.00;;;13.60;70.00;;;;;;4973383;28;20194;-89
2022/11/05 14:45:56;;;;;;;7.40;6.57;;;13.40;72.90;;;;;;4974003;28;20222;-88
2022/11/05 14:48:36;;;;;;;5.70;4.20;;;13.10;73.80;;;;;;4954543;28;20578;-90
2022/11/05 14:51:27;;;;;;;6.17;4.33;;;13.10;75.40;;;;;;4963193;28;20194;-88
2022/11/05 14:54:01;;;;;;;5.47;4.80;;;13.00;76.40;;;;;;4976750;28;20185;-87
2022/11/05 14:56:27;;;;;;;4.30;3.90;;;13.20;75.80;;;;;;4955368;28;20269;-88
2022/11/05 14:59:22;;;;;;;7.13;5.63;;;13.40;75.60;;;;;;4966339;28;20199;-89
2022/11/05 15:01:47;;;;;;;5.87;5.20;;;13.70;71.20;;;;;;4953255;28;20349;-88
2022/11/05 15:04:25;;;;;;;7.50;6.83;;;13.80;68.70;;;;;;4960025;28;20290;-90